createdAt,value
2022-10-02T00:00:04.356Z,1008.3
2022-10-02T00:01:04.507Z,1008.2
2022-10-02T00:02:04.366Z,1008.2
2022-10-02T00:03:04.378Z,1008.2
2022-10-02T00:04:04.441Z,1008.1
2022-10-02T00:05:04.356Z,1008.1
2022-10-02T00:06:04.349Z,1008.0
2022-10-02T00:07:04.367Z,1007.9
2022-10-02T00:08:04.363Z,1008.1
2022-10-02T00:09:04.359Z,1008.2
2022-10-02T00:10:04.382Z,1008.3
2022-10-02T00:11:04.391Z,1008.3
2022-10-02T00:12:04.364Z,1008.2
2022-10-02T00:13:04.357Z,1008.2
2022-10-02T00:14:04.345Z,1008.3
2022-10-02T00:15:04.468Z,1008.3
2022-10-02T00:16:04.441Z,1008.3
2022-10-02T00:17:04.368Z,1008.4
2022-10-02T00:18:04.355Z,1008.3
2022-10-02T00:19:04.361Z,1008.3
2022-10-02T00:20:04.355Z,1008.3
2022-10-02T00:21:04.376Z,1008.3
2022-10-02T00:22:04.387Z,1008.3
2022-10-02T00:23:04.373Z,1008.3
2022-10-02T00:24:04.349Z,1008.4
2022-10-02T00:25:04.355Z,1008.5
2022-10-02T00:26:04.353Z,1008.5
2022-10-02T00:27:04.383Z,1008.5
2022-10-02T00:28:04.432Z,1008.5
2022-10-02T00:29:04.358Z,1008.6
2022-10-02T00:30:04.359Z,1008.6
2022-10-02T00:31:04.366Z,1008.6
2022-10-02T00:32:04.461Z,1008.7
2022-10-02T00:33:04.375Z,1008.7
2022-10-02T00:34:04.391Z,1008.7
2022-10-02T00:35:04.391Z,1008.6
2022-10-02T00:36:04.370Z,1008.7
2022-10-02T00:37:04.368Z,1008.7
2022-10-02T00:38:30.789Z,1008.7
2022-10-02T00:39:04.762Z,1008.7
2022-10-02T00:40:04.656Z,1008.7
2022-10-02T00:41:04.658Z,1008.7
2022-10-02T00:42:05.520Z,1008.6
2022-10-02T00:43:04.653Z,1008.6
2022-10-02T00:44:04.688Z,1008.6
2022-10-02T00:45:04.692Z,1008.7
2022-10-02T00:46:04.746Z,1008.6
2022-10-02T00:47:04.657Z,1008.6
2022-10-02T00:48:04.623Z,1008.6
2022-10-02T00:49:04.517Z,1008.6
2022-10-02T00:50:04.524Z,1008.6
2022-10-02T00:51:04.559Z,1008.5
2022-10-02T00:52:04.544Z,1008.6
2022-10-02T00:53:04.524Z,1008.6
2022-10-02T00:54:04.538Z,1008.7
2022-10-02T00:55:04.602Z,1008.7
2022-10-02T00:56:04.526Z,1008.7
2022-10-02T00:57:04.592Z,1008.7
2022-10-02T00:58:04.534Z,1008.7
2022-10-02T00:59:04.527Z,1008.7
2022-10-02T01:00:04.522Z,1008.7
2022-10-02T01:01:04.658Z,1008.7
2022-10-02T01:02:04.607Z,1008.7
2022-10-02T01:03:04.575Z,1008.7
2022-10-02T01:04:04.527Z,1008.7
2022-10-02T01:05:04.518Z,1008.7
2022-10-02T01:06:04.589Z,1008.7
2022-10-02T01:07:04.531Z,1008.7
2022-10-02T01:08:04.536Z,1008.7
2022-10-02T01:09:04.522Z,1008.7
2022-10-02T01:10:04.527Z,1008.7
2022-10-02T01:11:04.525Z,1008.6
2022-10-02T01:12:04.553Z,1008.6
2022-10-02T01:13:04.541Z,1008.5
2022-10-02T01:14:04.524Z,1008.5
2022-10-02T01:15:04.525Z,1008.4
2022-10-02T01:16:04.593Z,1008.4
2022-10-02T01:17:04.540Z,1008.5
2022-10-02T01:18:04.554Z,1008.5
2022-10-02T01:19:04.583Z,1008.5
2022-10-02T01:20:04.530Z,1008.5
2022-10-02T01:21:05.079Z,1008.5
2022-10-02T01:22:04.526Z,1008.5
2022-10-02T01:23:04.553Z,1008.5
2022-10-02T01:24:04.676Z,1008.5
2022-10-02T01:25:04.539Z,1008.5
2022-10-02T01:26:04.528Z,1008.5
2022-10-02T01:27:04.549Z,1008.5
2022-10-02T01:28:04.560Z,1008.5
2022-10-02T01:29:04.548Z,1008.6
2022-10-02T01:30:04.564Z,1008.5
2022-10-02T01:31:04.546Z,1008.5
2022-10-02T01:32:04.565Z,1008.5
2022-10-02T01:33:04.529Z,1008.5
2022-10-02T01:34:04.543Z,1008.5
2022-10-02T01:35:04.538Z,1008.5
2022-10-02T01:36:04.559Z,1008.5
2022-10-02T01:37:04.547Z,1008.5
2022-10-02T01:38:04.534Z,1008.5
2022-10-02T01:39:04.541Z,1008.6
2022-10-02T01:40:04.524Z,1008.6
2022-10-02T01:41:04.529Z,1008.6
2022-10-02T01:42:04.558Z,1008.6
2022-10-02T01:43:04.538Z,1008.6
2022-10-02T01:44:04.547Z,1008.7
2022-10-02T01:45:04.529Z,1008.7
2022-10-02T01:46:04.581Z,1008.7
2022-10-02T01:47:04.530Z,1008.7
2022-10-02T01:48:04.568Z,1008.8
2022-10-02T01:49:04.539Z,1008.8
2022-10-02T01:50:04.540Z,1008.8
2022-10-02T01:51:04.528Z,1008.9
2022-10-02T01:52:04.545Z,1008.9
2022-10-02T01:53:04.535Z,1008.9
2022-10-02T01:54:04.573Z,1008.9
2022-10-02T01:55:04.542Z,1008.9
2022-10-02T01:56:04.540Z,1008.8
2022-10-02T01:57:04.537Z,1008.8
2022-10-02T01:58:04.543Z,1008.8
2022-10-02T01:59:04.535Z,1008.9
2022-10-02T02:00:04.579Z,1008.8
2022-10-02T02:01:04.575Z,1008.8
2022-10-02T02:02:04.600Z,1008.8
2022-10-02T02:03:04.531Z,1008.8
2022-10-02T02:04:04.552Z,1008.8
2022-10-02T02:05:04.563Z,1008.8
2022-10-02T02:06:04.571Z,1008.8
2022-10-02T02:07:04.544Z,1008.8
2022-10-02T02:08:04.538Z,1008.8
2022-10-02T02:09:04.536Z,1008.9
2022-10-02T02:10:04.546Z,1008.8
2022-10-02T02:11:04.579Z,1008.8
2022-10-02T02:12:04.586Z,1008.9
2022-10-02T02:13:04.549Z,1008.8
2022-10-02T02:14:04.547Z,1008.8
2022-10-02T02:15:04.549Z,1008.8
2022-10-02T02:16:04.604Z,1008.8
2022-10-02T02:17:04.539Z,1008.8
2022-10-02T02:18:04.589Z,1008.8
2022-10-02T02:19:04.544Z,1008.8
2022-10-02T02:20:04.549Z,1008.8
2022-10-02T02:21:04.550Z,1008.8
2022-10-02T02:22:04.560Z,1008.9
2022-10-02T02:23:04.546Z,1008.9
2022-10-02T02:24:04.577Z,1008.8
2022-10-02T02:25:04.562Z,1008.8
2022-10-02T02:26:04.546Z,1008.8
2022-10-02T02:27:04.549Z,1008.8
2022-10-02T02:28:04.679Z,1008.8
2022-10-02T02:29:04.761Z,1008.9
2022-10-02T02:30:04.594Z,1008.9
2022-10-02T02:31:04.593Z,1008.9
2022-10-02T02:32:04.562Z,1008.9
2022-10-02T02:33:04.545Z,1008.8
2022-10-02T02:34:04.545Z,1008.9
2022-10-02T02:35:04.550Z,1008.9
2022-10-02T02:36:04.593Z,1008.9
2022-10-02T02:37:04.545Z,1008.8
2022-10-02T02:38:04.556Z,1008.8
2022-10-02T02:39:04.572Z,1008.8
2022-10-02T02:40:04.553Z,1008.8
2022-10-02T02:41:04.548Z,1008.8
2022-10-02T02:42:04.584Z,1008.8
2022-10-02T02:43:05.468Z,1008.8
2022-10-02T02:44:04.552Z,1008.8
2022-10-02T02:45:04.552Z,1008.8
2022-10-02T02:46:04.597Z,1008.8
2022-10-02T02:47:04.578Z,1008.8
2022-10-02T02:48:04.598Z,1008.7
2022-10-02T02:49:04.555Z,1008.7
2022-10-02T02:50:04.587Z,1008.7
2022-10-02T02:51:04.551Z,1008.7
2022-10-02T02:52:04.558Z,1008.7
2022-10-02T02:53:04.564Z,1008.7
2022-10-02T02:54:04.587Z,1008.7
2022-10-02T02:55:04.548Z,1008.7
2022-10-02T02:56:04.565Z,1008.7
2022-10-02T02:57:04.554Z,1008.6
2022-10-02T02:58:04.564Z,1008.7
2022-10-02T02:59:04.546Z,1008.7
2022-10-02T03:00:04.599Z,1008.7
2022-10-02T03:01:04.608Z,1008.6
2022-10-02T03:02:04.663Z,1008.7
2022-10-02T03:03:04.562Z,1008.7
2022-10-02T03:04:04.577Z,1008.7
2022-10-02T03:05:04.627Z,1008.7
2022-10-02T03:06:04.597Z,1008.7
2022-10-02T03:07:04.556Z,1008.7
2022-10-02T03:08:04.563Z,1008.8
2022-10-02T03:09:04.566Z,1008.8
2022-10-02T03:10:04.567Z,1008.9
2022-10-02T03:11:04.556Z,1008.9
2022-10-02T03:12:04.627Z,1008.9
2022-10-02T03:13:04.560Z,1008.9
2022-10-02T03:14:04.572Z,1008.9
2022-10-02T03:15:04.556Z,1008.9
2022-10-02T03:16:04.705Z,1008.9
2022-10-02T03:17:04.559Z,1009.0
2022-10-02T03:18:04.602Z,1009.0
2022-10-02T03:19:04.562Z,1008.9
2022-10-02T03:20:04.798Z,1008.8
2022-10-02T03:21:04.564Z,1008.9
2022-10-02T03:22:04.560Z,1008.9
2022-10-02T03:23:04.577Z,1008.8
2022-10-02T03:24:04.598Z,1008.8
2022-10-02T03:25:04.558Z,1008.8
2022-10-02T03:26:04.616Z,1008.8
2022-10-02T03:27:04.558Z,1008.9
2022-10-02T03:28:04.591Z,1008.9
2022-10-02T03:29:04.613Z,1008.8
2022-10-02T03:30:04.606Z,1008.9
2022-10-02T03:31:04.587Z,1008.9
2022-10-02T03:32:04.585Z,1008.8
2022-10-02T03:33:04.577Z,1008.8
2022-10-02T03:34:05.891Z,1008.9
2022-10-02T03:35:04.571Z,1008.9
2022-10-02T03:36:04.614Z,1008.9
2022-10-02T03:37:04.571Z,1008.9
2022-10-02T03:38:04.574Z,1008.9
2022-10-02T03:39:24.586Z,1008.9
2022-10-02T03:40:04.569Z,1008.9
2022-10-02T03:41:04.554Z,1008.8
2022-10-02T03:42:04.603Z,1008.9
2022-10-02T03:43:04.562Z,1008.8
2022-10-02T03:44:04.575Z,1008.8
2022-10-02T03:45:04.647Z,1008.8
2022-10-02T03:46:04.651Z,1008.8
2022-10-02T03:47:04.565Z,1008.8
2022-10-02T03:48:04.569Z,1008.8
2022-10-02T03:49:04.574Z,1008.8
2022-10-02T03:50:04.577Z,1008.8
2022-10-02T03:51:04.598Z,1008.8
2022-10-02T03:52:04.596Z,1008.8
2022-10-02T03:53:04.564Z,1008.8
2022-10-02T03:54:04.574Z,1008.9
2022-10-02T03:55:04.586Z,1008.9
2022-10-02T03:56:04.579Z,1008.9
2022-10-02T03:57:04.569Z,1008.9
2022-10-02T03:58:04.611Z,1008.9
2022-10-02T03:59:04.648Z,1008.9
2022-10-02T04:00:04.577Z,1008.9
2022-10-02T04:01:04.579Z,1008.9
2022-10-02T04:02:04.626Z,1008.9
2022-10-02T04:03:04.617Z,1008.9
2022-10-02T04:04:04.596Z,1008.9
2022-10-02T04:05:04.572Z,1008.9
2022-10-02T04:06:04.617Z,1008.9
2022-10-02T04:07:04.578Z,1008.9
2022-10-02T04:08:04.579Z,1008.9
2022-10-02T04:09:04.567Z,1008.9
2022-10-02T04:10:04.577Z,1008.9
2022-10-02T04:11:04.572Z,1009.0
2022-10-02T04:12:04.634Z,1008.9
2022-10-02T04:13:04.572Z,1009.0
2022-10-02T04:14:04.581Z,1009.0
2022-10-02T04:15:04.599Z,1009.0
2022-10-02T04:16:04.619Z,1009.0
2022-10-02T04:17:04.580Z,1009.0
2022-10-02T04:18:04.610Z,1009.0
2022-10-02T04:19:04.572Z,1009.0
2022-10-02T04:20:04.583Z,1009.0
2022-10-02T04:21:04.579Z,1009.0
2022-10-02T04:22:04.587Z,1009.0
2022-10-02T04:24:55.305Z,1009.0
2022-10-02T04:25:04.003Z,1009.0
2022-10-02T04:26:04.027Z,1009.0
2022-10-02T04:27:04.010Z,1009.0
2022-10-02T04:28:04.054Z,1009.0
2022-10-02T04:29:04.023Z,1009.0
2022-10-02T04:30:04.910Z,1009.0
2022-10-02T04:31:04.012Z,1009.0
2022-10-02T04:32:04.038Z,1009.0
2022-10-02T04:33:04.007Z,1009.0
2022-10-02T04:34:04.001Z,1009.0
2022-10-02T04:35:04.045Z,1009.0
2022-10-02T04:36:03.997Z,1009.0
2022-10-02T04:37:04.002Z,1009.0
2022-10-02T04:38:04.038Z,1009.0
2022-10-02T04:39:04.024Z,1009.0
2022-10-02T04:40:04.001Z,1009.0
2022-10-02T04:41:04.005Z,1009.0
2022-10-02T04:42:04.005Z,1009.0
2022-10-02T04:43:04.014Z,1009.0
2022-10-02T04:44:04.055Z,1008.9
2022-10-02T04:45:04.042Z,1008.9
2022-10-02T04:46:04.081Z,1008.9
2022-10-02T04:47:04.007Z,1008.9
2022-10-02T04:48:04.014Z,1008.9
2022-10-02T04:49:04.019Z,1008.9
2022-10-02T04:50:04.049Z,1008.9
2022-10-02T04:51:04.026Z,1009.0
2022-10-02T04:52:04.001Z,1009.0
2022-10-02T04:53:04.009Z,1008.9
2022-10-02T04:54:04.016Z,1009.0
2022-10-02T04:55:04.024Z,1009.0
2022-10-02T04:56:04.034Z,1008.9
2022-10-02T04:57:04.009Z,1008.9
2022-10-02T04:58:04.013Z,1008.9
2022-10-02T04:59:04.022Z,1008.9
2022-10-02T05:00:04.109Z,1009.0
2022-10-02T05:01:04.074Z,1008.9
2022-10-02T05:02:04.067Z,1009.0
2022-10-02T05:03:04.012Z,1009.0
2022-10-02T05:04:04.192Z,1009.0
2022-10-02T05:05:04.015Z,1009.0
2022-10-02T05:06:04.012Z,1009.0
2022-10-02T05:07:04.020Z,1009.0
2022-10-02T05:08:04.073Z,1009.0
2022-10-02T05:09:04.019Z,1009.0
2022-10-02T05:10:04.018Z,1009.0
2022-10-02T05:11:04.024Z,1009.0
2022-10-02T05:12:04.010Z,1009.0
2022-10-02T05:14:35.412Z,1009.0
2022-10-02T05:15:04.155Z,1009.0
2022-10-02T05:16:04.884Z,1009.0
2022-10-02T05:17:04.139Z,1009.0
2022-10-02T05:18:04.113Z,1009.0
2022-10-02T05:19:04.119Z,1009.0
2022-10-02T05:20:04.143Z,1009.0
2022-10-02T05:21:04.117Z,1009.0
2022-10-02T05:22:04.110Z,1009.0
2022-10-02T05:23:04.128Z,1009.0
2022-10-02T05:24:04.114Z,1009.0
2022-10-02T05:25:04.121Z,1009.0
2022-10-02T05:26:04.184Z,1009.0
2022-10-02T05:27:04.142Z,1009.0
2022-10-02T05:28:04.174Z,1009.0
2022-10-02T05:29:04.121Z,1009.0
2022-10-02T05:30:04.126Z,1009.0
2022-10-02T05:31:04.264Z,1009.0
2022-10-02T05:32:04.147Z,1009.0
2022-10-02T05:33:04.142Z,1009.0
2022-10-02T05:34:04.121Z,1009.0
2022-10-02T05:35:04.124Z,1009.0
2022-10-02T05:36:04.120Z,1008.9
2022-10-02T05:37:04.129Z,1008.9
2022-10-02T05:38:04.143Z,1008.9
2022-10-02T05:39:04.119Z,1008.9
2022-10-02T05:40:04.128Z,1008.9
2022-10-02T05:41:04.122Z,1008.8
2022-10-02T05:42:04.140Z,1008.8
2022-10-02T05:43:04.119Z,1008.9
2022-10-02T05:44:04.145Z,1008.9
2022-10-02T05:45:04.137Z,1008.9
2022-10-02T05:46:04.167Z,1008.9
2022-10-02T05:47:04.162Z,1008.9
2022-10-02T05:48:04.114Z,1008.9
2022-10-02T05:49:04.174Z,1008.9
2022-10-02T05:50:04.129Z,1008.9
2022-10-02T05:51:04.134Z,1009.0
2022-10-02T05:52:04.149Z,1008.9
2022-10-02T05:53:04.124Z,1008.9
2022-10-02T05:54:04.183Z,1008.9
2022-10-02T05:55:04.124Z,1008.9
2022-10-02T05:56:04.125Z,1008.9
2022-10-02T05:57:04.136Z,1008.9
2022-10-02T05:58:04.159Z,1008.9
2022-10-02T05:59:04.125Z,1009.0
2022-10-02T06:00:04.136Z,1009.0
2022-10-02T06:02:39.120Z,1009.0
2022-10-02T06:03:03.758Z,1009.1
2022-10-02T06:04:03.780Z,1009.1
2022-10-02T06:05:03.749Z,1009.1
2022-10-02T06:06:03.764Z,1009.1
2022-10-02T06:07:03.750Z,1009.1
2022-10-02T06:08:03.763Z,1009.1
2022-10-02T06:09:03.752Z,1009.1
2022-10-02T06:10:03.803Z,1009.2
2022-10-02T06:11:03.754Z,1009.2
2022-10-02T06:12:03.761Z,1009.2
2022-10-02T06:13:03.762Z,1009.3
2022-10-02T06:14:10.466Z,1009.2
2022-10-02T06:15:04.173Z,1009.2
2022-10-02T06:16:04.261Z,1009.2
2022-10-02T06:17:04.171Z,1009.2
2022-10-02T06:18:10.882Z,1009.2
2022-10-02T06:19:04.607Z,1009.3
2022-10-02T06:20:04.601Z,1009.3
2022-10-02T06:21:11.363Z,1009.3
2022-10-02T06:22:04.074Z,1009.3
2022-10-02T06:23:04.068Z,1009.3
2022-10-02T06:24:10.796Z,1009.2
2022-10-02T06:25:04.504Z,1009.3
2022-10-02T06:26:05.171Z,1009.3
2022-10-02T06:27:04.530Z,1009.3
2022-10-02T06:28:04.547Z,1009.3
2022-10-02T06:29:04.545Z,1009.2
2022-10-02T06:30:04.566Z,1009.2
2022-10-02T06:31:04.514Z,1009.2
2022-10-02T06:32:04.515Z,1009.2
2022-10-02T06:33:04.543Z,1009.1
2022-10-02T06:34:04.509Z,1009.1
2022-10-02T06:35:04.498Z,1009.1
2022-10-02T06:36:04.507Z,1009.1
2022-10-02T06:37:04.509Z,1009.1
2022-10-02T06:38:04.520Z,1009.1
2022-10-02T06:39:04.557Z,1009.1
2022-10-02T06:40:04.510Z,1009.0
2022-10-02T06:41:04.530Z,1009.0
2022-10-02T06:42:04.517Z,1009.1
2022-10-02T06:43:04.509Z,1009.1
2022-10-02T06:44:04.547Z,1009.1
2022-10-02T06:45:04.598Z,1009.1
2022-10-02T06:46:04.564Z,1009.1
2022-10-02T06:47:04.504Z,1009.1
2022-10-02T06:48:04.515Z,1009.1
2022-10-02T06:49:04.517Z,1009.1
2022-10-02T06:50:04.520Z,1009.1
2022-10-02T06:51:04.535Z,1009.1
2022-10-02T06:52:04.523Z,1009.1
2022-10-02T06:53:04.513Z,1009.1
2022-10-02T06:54:04.510Z,1009.1
2022-10-02T06:55:04.515Z,1009.1
2022-10-02T06:56:04.525Z,1009.1
2022-10-02T06:57:04.538Z,1009.1
2022-10-02T06:58:04.524Z,1009.2
2022-10-02T06:59:04.522Z,1009.2
2022-10-02T07:00:04.723Z,1009.2
2022-10-02T07:01:04.636Z,1009.2
2022-10-02T07:02:04.647Z,1009.2
2022-10-02T07:03:04.550Z,1009.2
2022-10-02T07:04:04.518Z,1009.2
2022-10-02T07:05:04.543Z,1009.2
2022-10-02T07:06:04.530Z,1009.2
2022-10-02T07:07:04.519Z,1009.2
2022-10-02T07:08:04.517Z,1009.2
2022-10-02T07:09:04.551Z,1009.2
2022-10-02T07:10:04.532Z,1009.2
2022-10-02T07:11:04.527Z,1009.2
2022-10-02T07:12:04.515Z,1009.2
2022-10-02T07:13:04.528Z,1009.2
2022-10-02T07:14:04.521Z,1009.1
2022-10-02T07:15:04.565Z,1009.1
2022-10-02T07:16:04.559Z,1009.1
2022-10-02T07:17:04.514Z,1009.1
2022-10-02T07:18:04.623Z,1009.1
2022-10-02T07:19:04.648Z,1009.2
2022-10-02T07:20:04.545Z,1009.2
2022-10-02T07:21:04.546Z,1009.2
2022-10-02T07:22:20.254Z,1009.2
2022-10-02T07:23:07.531Z,1009.2
2022-10-02T07:24:04.522Z,1009.2
2022-10-02T07:25:04.521Z,1009.2
2022-10-02T07:26:04.534Z,1009.2
2022-10-02T07:27:04.545Z,1009.2
2022-10-02T07:28:04.575Z,1009.1
2022-10-02T07:29:04.518Z,1009.1
2022-10-02T07:30:04.528Z,1009.2
2022-10-02T07:32:13.932Z,1009.2
2022-10-02T07:32:17.933Z,1009.3
2022-10-02T07:33:04.553Z,1009.3
2022-10-02T07:34:04.523Z,1009.4
2022-10-02T07:35:04.573Z,1009.4
2022-10-02T07:36:05.446Z,1009.4
2022-10-02T07:37:04.546Z,1009.4
2022-10-02T07:38:04.619Z,1009.3
2022-10-02T07:39:04.520Z,1009.3
2022-10-02T07:40:04.548Z,1009.2
2022-10-02T07:41:04.526Z,1009.1
2022-10-02T07:42:04.545Z,1009.2
2022-10-02T07:43:04.526Z,1009.2
2022-10-02T07:44:04.569Z,1009.2
2022-10-02T07:45:04.528Z,1009.2
2022-10-02T07:46:04.617Z,1009.2
2022-10-02T07:47:04.533Z,1009.2
2022-10-02T07:48:04.531Z,1009.3
2022-10-02T07:49:04.535Z,1009.3
2022-10-02T07:50:04.558Z,1009.3
2022-10-02T07:51:04.559Z,1009.3
2022-10-02T07:52:04.537Z,1009.3
2022-10-02T07:53:04.526Z,1009.3
2022-10-02T07:54:04.544Z,1009.3
2022-10-02T07:55:04.543Z,1009.3
2022-10-02T07:56:04.568Z,1009.3
2022-10-02T07:57:09.113Z,1009.4
2022-10-02T07:58:04.547Z,1009.4
2022-10-02T07:59:04.534Z,1009.4
2022-10-02T08:00:04.556Z,1009.4
2022-10-02T08:01:04.537Z,1009.3
2022-10-02T08:02:04.627Z,1009.4
2022-10-02T08:03:04.564Z,1009.3
2022-10-02T08:04:04.554Z,1009.3
2022-10-02T08:05:04.560Z,1009.3
2022-10-02T08:06:04.577Z,1009.4
2022-10-02T08:07:04.537Z,1009.3
2022-10-02T08:08:04.587Z,1009.3
2022-10-02T08:09:04.545Z,1009.3
2022-10-02T08:10:04.793Z,1009.3
2022-10-02T08:11:04.530Z,1009.3
2022-10-02T08:12:04.575Z,1009.3
2022-10-02T08:13:04.536Z,1009.3
2022-10-02T08:14:04.584Z,1009.3
2022-10-02T08:15:04.578Z,1009.3
2022-10-02T08:16:04.683Z,1009.2
2022-10-02T08:17:04.543Z,1009.2
2022-10-02T08:18:30.181Z,1009.2
2022-10-02T08:19:04.585Z,1009.2
2022-10-02T08:20:04.588Z,1009.2
2022-10-02T08:21:04.542Z,1009.2
2022-10-02T08:22:04.537Z,1009.3
2022-10-02T08:23:04.556Z,1009.2
2022-10-02T08:24:04.540Z,1009.2
2022-10-02T08:25:04.529Z,1009.2
2022-10-02T08:26:04.601Z,1009.2
2022-10-02T08:27:04.531Z,1009.3
2022-10-02T08:28:04.618Z,1009.3
2022-10-02T08:29:04.537Z,1009.3
2022-10-02T08:30:04.557Z,1009.2
2022-10-02T08:32:34.698Z,1009.2
2022-10-02T08:32:39.077Z,1009.2
2022-10-02T08:33:04.565Z,1009.2
2022-10-02T08:34:04.544Z,1009.2
2022-10-02T08:35:04.556Z,1009.2
2022-10-02T08:36:04.666Z,1009.2
2022-10-02T08:37:04.534Z,1009.2
2022-10-02T08:38:04.540Z,1009.3
2022-10-02T08:39:04.558Z,1009.3
2022-10-02T08:40:04.553Z,1009.3
2022-10-02T08:41:04.542Z,1009.2
2022-10-02T08:42:04.616Z,1009.2
2022-10-02T08:43:04.553Z,1009.2
2022-10-02T08:44:04.567Z,1009.1
2022-10-02T08:45:04.584Z,1009.2
2022-10-02T08:46:04.626Z,1009.1
2022-10-02T08:47:04.539Z,1009.2
2022-10-02T08:48:04.578Z,1009.1
2022-10-02T08:49:04.545Z,1009.2
2022-10-02T08:50:04.552Z,1009.2
2022-10-02T08:51:04.551Z,1009.2
2022-10-02T08:52:04.562Z,1009.2
2022-10-02T08:53:04.540Z,1009.2
2022-10-02T08:54:04.587Z,1009.2
2022-10-02T08:55:04.553Z,1009.2
2022-10-02T08:56:04.558Z,1009.2
2022-10-02T08:57:04.563Z,1009.2
2022-10-02T08:58:04.552Z,1009.2
2022-10-02T08:59:04.546Z,1009.3
2022-10-02T09:00:04.584Z,1009.3
2022-10-02T09:01:04.582Z,1009.4
2022-10-02T09:02:04.586Z,1009.3
2022-10-02T09:03:04.540Z,1009.3
2022-10-02T09:04:04.548Z,1009.3
2022-10-02T09:05:04.586Z,1009.3
2022-10-02T09:06:04.653Z,1009.3
2022-10-02T09:07:04.563Z,1009.2
2022-10-02T09:08:04.574Z,1009.2
2022-10-02T09:09:04.552Z,1009.1
2022-10-02T09:10:04.573Z,1009.2
2022-10-02T09:11:04.604Z,1009.2
2022-10-02T09:12:04.563Z,1009.3
2022-10-02T09:13:04.589Z,1009.3
2022-10-02T09:14:04.625Z,1009.3
2022-10-02T09:15:04.554Z,1009.4
2022-10-02T09:16:04.615Z,1009.3
2022-10-02T09:17:04.609Z,1009.3
2022-10-02T09:18:04.547Z,1009.3
2022-10-02T09:19:04.553Z,1009.2
2022-10-02T09:20:04.594Z,1009.2
2022-10-02T09:21:09.305Z,1009.2
2022-10-02T09:22:04.571Z,1009.1
2022-10-02T09:23:04.589Z,1009.2
2022-10-02T09:24:04.550Z,1009.2
2022-10-02T09:25:04.567Z,1009.2
2022-10-02T09:26:04.558Z,1009.2
2022-10-02T09:27:04.557Z,1009.2
2022-10-02T09:30:04.942Z,1009.2
2022-10-02T09:30:10.980Z,1009.1
2022-10-02T09:31:04.555Z,1009.2
2022-10-02T09:32:04.564Z,1009.1
2022-10-02T09:33:04.557Z,1009.2
2022-10-02T09:34:04.562Z,1009.1
2022-10-02T09:35:04.554Z,1009.0
2022-10-02T09:36:05.687Z,1009.0
2022-10-02T09:37:04.562Z,1009.1
2022-10-02T09:38:04.570Z,1009.1
2022-10-02T09:39:04.557Z,1009.2
2022-10-02T09:40:04.568Z,1009.2
2022-10-02T09:41:04.564Z,1009.3
2022-10-02T09:42:05.655Z,1009.3
2022-10-02T09:43:04.565Z,1009.3
2022-10-02T09:44:04.575Z,1009.3
2022-10-02T09:45:04.657Z,1009.2
2022-10-02T09:46:05.577Z,1009.2
2022-10-02T09:47:04.651Z,1009.2
2022-10-02T09:48:04.596Z,1009.3
2022-10-02T09:49:04.570Z,1009.2
2022-10-02T09:50:04.621Z,1009.2
2022-10-02T09:51:04.562Z,1009.2
2022-10-02T09:52:04.733Z,1009.2
2022-10-02T09:53:04.659Z,1009.2
2022-10-02T09:54:04.592Z,1009.2
2022-10-02T09:55:04.583Z,1009.2
2022-10-02T09:56:04.575Z,1009.2
2022-10-02T09:57:04.617Z,1009.2
2022-10-02T09:58:04.594Z,1009.2
2022-10-02T09:59:04.568Z,1009.2
2022-10-02T10:00:04.612Z,1009.2
2022-10-02T10:01:04.697Z,1009.2
2022-10-02T10:02:04.663Z,1009.1
2022-10-02T10:03:04.571Z,1009.1
2022-10-02T10:04:04.577Z,1009.2
2022-10-02T10:05:06.820Z,1009.3
2022-10-02T10:06:05.506Z,1009.3
2022-10-02T10:07:04.596Z,1009.3
2022-10-02T10:08:04.666Z,1009.3
2022-10-02T10:09:04.605Z,1009.2
2022-10-02T10:10:04.589Z,1009.2
2022-10-02T10:11:04.572Z,1009.3
2022-10-02T10:12:04.582Z,1009.3
2022-10-02T10:13:04.665Z,1009.3
2022-10-02T10:14:04.702Z,1009.3
2022-10-02T10:15:09.004Z,1009.3
2022-10-02T10:16:04.629Z,1009.4
2022-10-02T10:17:04.635Z,1009.3
2022-10-02T10:18:04.624Z,1009.3
2022-10-02T10:19:04.609Z,1009.3
2022-10-02T10:20:04.701Z,1009.3
2022-10-02T10:21:04.669Z,1009.2
2022-10-02T10:22:05.525Z,1009.3
2022-10-02T10:23:04.623Z,1009.2
2022-10-02T10:24:31.062Z,1009.1
2022-10-02T10:25:03.841Z,1009.1
2022-10-02T10:26:03.822Z,1009.2
2022-10-02T10:27:07.313Z,1009.2
2022-10-02T10:28:06.001Z,1009.2
2022-10-02T10:29:03.870Z,1009.2
2022-10-02T10:30:03.851Z,1009.2
2022-10-02T10:31:03.789Z,1009.2
2022-10-02T10:32:03.987Z,1009.1
2022-10-02T10:33:03.839Z,1009.1
2022-10-02T10:34:03.855Z,1009.1
2022-10-02T10:35:03.831Z,1009.1
2022-10-02T10:36:03.848Z,1009.1
2022-10-02T10:37:03.840Z,1009.2
2022-10-02T10:38:03.919Z,1009.2
2022-10-02T10:39:12.875Z,1009.2
2022-10-02T11:14:15.418Z,1009.3
2022-10-02T11:15:04.422Z,1009.3
2022-10-02T11:16:04.772Z,1009.3
2022-10-02T11:17:04.552Z,1009.4
2022-10-02T11:18:04.424Z,1009.4
2022-10-02T11:19:04.529Z,1009.4
2022-10-02T11:20:04.442Z,1009.4
2022-10-02T11:21:04.463Z,1009.4
2022-10-02T11:22:04.472Z,1009.5
2022-10-02T11:23:04.424Z,1009.5
2022-10-02T11:24:04.439Z,1009.5
2022-10-02T11:25:05.290Z,1009.5
2022-10-02T11:26:04.653Z,1009.5
2022-10-02T11:27:04.760Z,1009.5
2022-10-02T11:28:04.497Z,1009.5
2022-10-02T11:29:04.544Z,1009.5
2022-10-02T11:30:04.429Z,1009.5
2022-10-02T11:31:04.531Z,1009.5
2022-10-02T11:32:04.488Z,1009.4
2022-10-02T11:33:04.437Z,1009.5
2022-10-02T11:34:04.430Z,1009.5
2022-10-02T11:35:04.651Z,1009.5
2022-10-02T11:36:04.456Z,1009.5
2022-10-02T11:37:05.285Z,1009.5
2022-10-02T11:38:04.472Z,1009.5
2022-10-02T11:39:04.537Z,1009.5
2022-10-02T11:40:04.425Z,1009.5
2022-10-02T11:41:04.447Z,1009.5
2022-10-02T11:42:04.450Z,1009.5
2022-10-02T11:43:04.484Z,1009.5
2022-10-02T11:44:04.502Z,1009.5
2022-10-02T11:45:04.467Z,1009.5
2022-10-02T11:46:04.540Z,1009.6
2022-10-02T11:47:04.459Z,1009.6
2022-10-02T11:48:04.423Z,1009.6
2022-10-02T11:49:04.489Z,1009.5
2022-10-02T11:50:04.628Z,1009.5
2022-10-02T11:51:04.433Z,1009.6
2022-10-02T11:52:04.421Z,1009.5
2022-10-02T11:53:04.435Z,1009.6
2022-10-02T11:54:04.449Z,1009.6
2022-10-02T11:55:04.442Z,1009.5
2022-10-02T11:56:04.511Z,1009.6
2022-10-02T11:57:04.563Z,1009.5
2022-10-02T11:58:04.519Z,1009.5
2022-10-02T11:59:04.494Z,1009.5
2022-10-02T12:00:04.493Z,1009.5
2022-10-02T12:01:04.498Z,1009.4
2022-10-02T12:02:04.706Z,1009.5
2022-10-02T12:03:31.569Z,1009.4
2022-10-02T12:04:04.589Z,1009.4
2022-10-02T12:05:04.653Z,1009.4
2022-10-02T12:06:04.604Z,1009.4
2022-10-02T12:07:04.642Z,1009.4
2022-10-02T12:08:04.627Z,1009.5
2022-10-02T12:09:04.686Z,1009.4
2022-10-02T12:10:04.728Z,1009.5
2022-10-02T12:11:04.670Z,1009.4
2022-10-02T12:12:04.751Z,1009.4
2022-10-02T12:13:04.762Z,1009.4
2022-10-02T12:14:04.720Z,1009.3
2022-10-02T12:15:04.709Z,1009.4
2022-10-02T12:16:04.993Z,1009.4
2022-10-02T12:17:04.680Z,1009.5
2022-10-02T12:18:04.920Z,1009.5
2022-10-02T12:19:04.781Z,1009.5
2022-10-02T12:20:04.728Z,1009.5
2022-10-02T12:21:04.664Z,1009.5
2022-10-02T12:22:04.685Z,1009.4
2022-10-02T12:23:04.754Z,1009.4
2022-10-02T12:24:05.715Z,1009.4
2022-10-02T12:25:05.055Z,1009.4
2022-10-02T12:26:04.665Z,1009.4
2022-10-02T12:27:04.870Z,1009.4
2022-10-02T12:28:04.785Z,1009.4
2022-10-02T12:29:06.802Z,1009.3
2022-10-02T12:30:04.917Z,1009.3
2022-10-02T12:31:04.719Z,1009.3
2022-10-02T12:32:05.816Z,1009.3
2022-10-02T12:33:04.764Z,1009.3
2022-10-02T12:34:04.712Z,1009.3
2022-10-02T12:35:04.696Z,1009.3
2022-10-02T12:36:04.752Z,1009.3
2022-10-02T12:37:04.703Z,1009.3
2022-10-02T12:38:04.784Z,1009.3
2022-10-02T12:39:04.693Z,1009.3
2022-10-02T12:40:11.469Z,1009.3
2022-10-02T12:41:06.497Z,1009.3
2022-10-02T12:42:04.261Z,1009.3
2022-10-02T12:43:04.190Z,1009.3
2022-10-02T12:44:04.205Z,1009.3
2022-10-02T12:45:08.020Z,1009.3
2022-10-02T12:46:04.270Z,1009.3
2022-10-02T12:47:04.184Z,1009.4
2022-10-02T12:48:04.255Z,1009.4
2022-10-02T12:49:04.171Z,1009.5
2022-10-02T12:50:04.092Z,1009.4
2022-10-02T12:51:05.635Z,1009.3
2022-10-02T12:52:04.106Z,1009.3
2022-10-02T12:53:04.208Z,1009.3
2022-10-02T12:54:04.196Z,1009.4
2022-10-02T12:55:04.112Z,1009.4
2022-10-02T12:56:04.243Z,1009.5
2022-10-02T12:57:04.103Z,1009.4
2022-10-02T12:58:04.193Z,1009.4
2022-10-02T12:59:04.140Z,1009.4
2022-10-02T13:00:04.133Z,1009.3
2022-10-02T13:01:04.181Z,1009.4
2022-10-02T13:02:04.167Z,1009.4
2022-10-02T13:03:04.750Z,1009.3
2022-10-02T13:04:04.091Z,1009.3
2022-10-02T13:05:04.146Z,1009.3
2022-10-02T13:06:04.985Z,1009.3